createdAt,value
2018-03-18T00:02:01.342Z,11.79
2018-03-18T00:07:52.031Z,4.6
2018-03-18T00:13:42.809Z,5.72
2018-03-18T00:19:33.527Z,8.93
2018-03-18T00:25:24.193Z,10.73
2018-03-18T00:31:14.825Z,6.52
2018-03-18T00:37:05.624Z,5.96
2018-03-18T00:42:56.221Z,4.84
2018-03-18T00:48:46.930Z,6.99
2018-03-18T00:54:37.698Z,11.06
2018-03-18T01:00:28.391Z,12.01
2018-03-18T01:06:19.087Z,14.43
2018-03-18T01:12:09.717Z,6.56
2018-03-18T01:18:00.422Z,9.02
2018-03-18T01:23:51.121Z,4.93
2018-03-18T01:29:41.802Z,5.68
2018-03-18T01:35:32.515Z,9.18
2018-03-18T01:41:23.180Z,5.57
2018-03-18T01:47:13.923Z,7.95
2018-03-18T01:53:04.584Z,8.57
2018-03-18T01:58:55.310Z,7.62
2018-03-18T02:04:46.001Z,7.32
2018-03-18T02:10:36.687Z,13.26
2018-03-18T02:16:27.392Z,7.24
2018-03-18T02:22:18.103Z,5.03
2018-03-18T02:28:08.814Z,5.61
2018-03-18T02:33:59.548Z,12.11
2018-03-18T02:39:50.278Z,4.76
2018-03-18T02:45:40.952Z,10.16
2018-03-18T02:51:31.622Z,2.89
2018-03-18T02:57:22.349Z,3.05
2018-03-18T03:03:13.000Z,3.7
2018-03-18T03:09:03.694Z,2.91
2018-03-18T03:14:54.368Z,3.81
2018-03-18T03:20:45.144Z,6.9
2018-03-18T03:26:35.796Z,3.71
2018-03-18T03:32:26.474Z,2
2018-03-18T03:38:17.210Z,5.18
2018-03-18T03:44:07.915Z,5.73
2018-03-18T03:49:58.514Z,4.03
2018-03-18T03:55:49.264Z,3.6
2018-03-18T04:01:39.963Z,4.82
2018-03-18T04:07:30.620Z,5.46
2018-03-18T04:13:21.310Z,2.29
2018-03-18T04:19:12.055Z,4.57
2018-03-18T04:25:02.732Z,1.93
2018-03-18T04:30:53.462Z,2.85
2018-03-18T04:36:44.132Z,7.85
2018-03-18T04:42:34.798Z,5.47
2018-03-18T04:48:25.499Z,3.36
2018-03-18T04:54:16.180Z,2.6
2018-03-18T05:00:06.923Z,4.03
2018-03-18T05:05:57.571Z,5.54
2018-03-18T05:11:48.273Z,2.58
2018-03-18T05:17:38.998Z,12.07
2018-03-18T05:23:29.686Z,5.11
2018-03-18T05:29:20.389Z,7.92
2018-03-18T05:35:11.116Z,8.31
2018-03-18T05:41:01.755Z,9.45
2018-03-18T05:46:52.519Z,9.32
2018-03-18T05:52:43.171Z,5.47
2018-03-18T05:58:33.842Z,3.74
2018-03-18T06:04:24.538Z,8.48
2018-03-18T06:10:15.288Z,4.01
2018-03-18T06:16:05.942Z,4.44
2018-03-18T06:21:56.664Z,4.9
2018-03-18T06:27:47.355Z,5.22
2018-03-18T06:33:38.054Z,6.57
2018-03-18T06:39:28.771Z,7.25
2018-03-18T06:45:19.506Z,3.62
2018-03-18T06:51:10.213Z,4.26
2018-03-18T06:57:00.821Z,5.1
2018-03-18T07:02:51.510Z,6.81
2018-03-18T07:08:42.266Z,2.16
2018-03-18T07:14:32.999Z,2.9
2018-03-18T07:20:23.711Z,4.84
2018-03-18T07:26:14.377Z,3.79
2018-03-18T07:32:04.989Z,3.03
2018-03-18T07:37:55.695Z,4.85
2018-03-18T07:43:46.456Z,4.07
2018-03-18T07:49:37.100Z,2.88
2018-03-18T07:55:27.805Z,2.12
2018-03-18T08:01:18.535Z,2.05
2018-03-18T08:07:09.176Z,1.56
2018-03-18T08:12:59.914Z,3.75
2018-03-18T08:18:50.578Z,1.66
2018-03-18T08:24:41.252Z,3.61
2018-03-18T08:30:32.002Z,2.32
2018-03-18T08:36:22.696Z,3.1
2018-03-18T08:42:13.410Z,4.4
2018-03-18T08:48:04.093Z,5.7
2018-03-18T08:53:54.802Z,3.2
2018-03-18T08:59:45.479Z,8.45
2018-03-18T09:05:36.201Z,4.23
2018-03-18T09:11:26.921Z,3.35
2018-03-18T09:17:17.594Z,4.15
2018-03-18T09:23:08.332Z,4.27
2018-03-18T09:28:58.988Z,3.59
2018-03-18T09:34:49.659Z,4.15
2018-03-18T09:40:40.384Z,3.08
2018-03-18T09:46:31.066Z,4.29
2018-03-18T09:52:21.742Z,3.68
2018-03-18T09:58:12.487Z,4.35
2018-03-18T10:04:03.127Z,3.12
2018-03-18T10:09:53.862Z,3.95
2018-03-18T10:15:44.542Z,2.31
2018-03-18T10:21:35.250Z,2.83
2018-03-18T10:27:25.968Z,2.25
2018-03-18T10:33:16.656Z,2.19
2018-03-18T10:39:07.400Z,3.7
2018-03-18T10:44:58.058Z,2.85
2018-03-18T10:50:48.737Z,3.04
2018-03-18T10:56:39.434Z,3.29
2018-03-18T11:02:30.152Z,3.44
2018-03-18T11:08:20.872Z,3.03
2018-03-18T11:14:11.556Z,3.06
2018-03-18T11:20:02.257Z,2.05
2018-03-18T11:25:52.927Z,2.36
2018-03-18T11:31:43.640Z,3.17
2018-03-18T11:37:34.354Z,2.6
2018-03-18T11:43:25.034Z,1.64
2018-03-18T11:49:15.725Z,2.35
2018-03-18T11:55:06.436Z,1.74
2018-03-18T12:00:57.152Z,3.56
2018-03-18T12:06:47.841Z,2.13
2018-03-18T12:12:38.535Z,2.87
2018-03-18T12:18:29.292Z,2.06
2018-03-18T12:24:19.906Z,4.34
2018-03-18T12:30:10.686Z,3.6
2018-03-18T12:36:01.296Z,1.47
2018-03-18T12:41:52.034Z,2.43
2018-03-18T12:47:42.722Z,1.43
2018-03-18T12:53:33.474Z,1.91
2018-03-18T12:59:24.317Z,1.92
2018-03-18T13:05:14.860Z,1.67
2018-03-18T13:11:05.534Z,1.52
2018-03-18T13:16:56.223Z,1.31
2018-03-18T13:22:46.904Z,2.14
2018-03-18T13:28:37.616Z,1.71
2018-03-18T13:34:28.342Z,1.2
2018-03-18T13:40:18.992Z,1.89
2018-03-18T13:46:09.764Z,1.5
2018-03-18T13:52:00.400Z,5.43
2018-03-18T13:57:51.125Z,1.47
2018-03-18T14:03:41.777Z,2.52
2018-03-18T14:09:32.563Z,1.73
2018-03-18T14:15:23.194Z,1.63
2018-03-18T14:21:13.900Z,1.58
2018-03-18T14:27:04.629Z,1.29
2018-03-18T14:32:55.353Z,1.53
2018-03-18T14:38:46.036Z,1.75
2018-03-18T14:44:36.730Z,1.2
2018-03-18T14:50:27.434Z,1.81
2018-03-18T14:56:18.112Z,1.34
2018-03-18T15:02:08.807Z,2.27
2018-03-18T15:07:59.577Z,3.23
2018-03-18T15:13:50.239Z,3.31
2018-03-18T15:19:40.977Z,1.65
2018-03-18T15:25:31.626Z,1.58
2018-03-18T15:31:22.365Z,2.21
2018-03-18T15:37:13.058Z,1.99
2018-03-18T15:43:03.773Z,1.33
2018-03-18T15:48:54.478Z,1.39
2018-03-18T15:54:45.172Z,1.76
2018-03-18T16:00:35.934Z,1.66
2018-03-18T16:06:26.648Z,1.64
2018-03-18T16:12:17.267Z,1.92
2018-03-18T16:18:08.024Z,2.67
2018-03-18T16:23:58.787Z,3.99
2018-03-18T16:29:49.430Z,4.91
2018-03-18T16:35:40.110Z,2.86
2018-03-18T16:41:30.775Z,2.1
2018-03-18T16:47:21.542Z,2.61
2018-03-18T16:53:12.217Z,2.38
2018-03-18T16:59:02.869Z,3.61
2018-03-18T17:04:53.606Z,6.67
2018-03-18T17:10:44.315Z,6.95
2018-03-18T17:16:35.022Z,2.81
2018-03-18T17:22:25.718Z,4.9
2018-03-18T17:28:16.378Z,3.9
2018-03-18T17:34:07.089Z,12.74
2018-03-18T17:39:57.796Z,8.78
2018-03-18T17:45:48.476Z,7.2
2018-03-18T17:51:39.182Z,7.22
2018-03-18T17:57:29.858Z,12.04
2018-03-18T18:03:20.667Z,8.59
2018-03-18T18:09:11.266Z,8.44
2018-03-18T18:15:02.000Z,8.09
2018-03-18T18:20:52.705Z,7.88
2018-03-18T18:26:43.379Z,6.24
2018-03-18T18:32:34.066Z,7.72
2018-03-18T18:38:24.778Z,7.08
2018-03-18T18:44:15.482Z,8.55
2018-03-18T18:50:06.268Z,6.34
2018-03-18T18:55:56.908Z,8.13
2018-03-18T19:01:47.571Z,5.22
2018-03-18T19:07:38.309Z,7.11
2018-03-18T19:13:29.020Z,7.75
2018-03-18T19:19:19.703Z,9.57
2018-03-18T19:25:10.384Z,11.56
2018-03-18T19:31:01.101Z,7.49
2018-03-18T19:36:51.797Z,6.28
2018-03-18T19:42:42.539Z,5.44
2018-03-18T19:48:33.228Z,4.46
2018-03-18T19:54:23.982Z,4.35
2018-03-18T20:00:14.600Z,6.08
2018-03-18T20:06:05.275Z,7.49
2018-03-18T20:11:55.957Z,4.49
2018-03-18T20:17:46.703Z,5.73
2018-03-18T20:23:37.447Z,4.82
2018-03-18T20:29:28.055Z,5.84
2018-03-18T20:35:18.755Z,8.94
2018-03-18T20:41:09.458Z,8.57
2018-03-18T20:47:00.166Z,3.54
2018-03-18T20:52:50.876Z,4.68
2018-03-18T20:58:41.563Z,4.55
2018-03-18T21:04:32.257Z,3.64
2018-03-18T21:10:22.937Z,2.89
2018-03-18T21:16:13.626Z,3.32
2018-03-18T21:22:04.362Z,3.22
2018-03-18T21:27:55.022Z,4.7
2018-03-18T21:33:45.750Z,5
2018-03-18T21:39:36.436Z,4.75
2018-03-18T21:45:27.101Z,3.63
2018-03-18T21:51:17.851Z,4.56
2018-03-18T21:57:08.586Z,4.28
2018-03-18T22:02:59.227Z,2.85
2018-03-18T22:08:49.952Z,7.16
2018-03-18T22:14:40.603Z,4.56
2018-03-18T22:20:31.307Z,2.01
2018-03-18T22:26:22.048Z,2.52
2018-03-18T22:32:12.674Z,2.52
2018-03-18T22:38:03.394Z,4.68
2018-03-18T22:43:54.090Z,2.33
2018-03-18T22:49:44.745Z,4.57
2018-03-18T22:55:35.459Z,5.09
2018-03-18T23:01:26.167Z,2.11
2018-03-18T23:07:16.842Z,1.27
2018-03-18T23:13:07.628Z,1.88
2018-03-18T23:18:58.275Z,1.23
2018-03-18T23:24:48.931Z,3.74
2018-03-18T23:30:39.623Z,2.09
2018-03-18T23:36:30.340Z,2.99
2018-03-18T23:42:21.045Z,1.58
2018-03-18T23:48:11.758Z,1.07
2018-03-18T23:54:02.395Z,1.25
2018-03-18T23:59:53.080Z,2.17
